sensor_id;sensor_type;location;lat;lon;timestamp;temperature;humidity
21271;DHT22;10795;50.796;3.860;2023-04-01T00:02:18;9.80;99.90
21271;DHT22;10795;50.796;3.860;2023-04-01T00:04:43;9.80;99.90
21271;DHT22;10795;50.796;3.860;2023-04-01T00:07:09;9.80;99.90
21271;DHT22;10795;50.796;3.860;2023-04-01T00:09:35;9.80;99.90
21271;DHT22;10795;50.796;3.860;2023-04-01T00:12:01;9.80;99.90
21271;DHT22;10795;50.796;3.860;2023-04-01T00:14:26;9.80;99.90
21271;DHT22;10795;50.796;3.860;2023-04-01T00:16:52;9.90;99.90
21271;DHT22;10795;50.796;3.860;2023-04-01T00:19:18;10.00;99.90
21271;DHT22;10795;50.796;3.860;2023-04-01T00:21:43;10.00;99.90
21271;DHT22;10795;50.796;3.860;2023-04-01T00:24:09;10.00;99.90
21271;DHT22;10795;50.796;3.860;2023-04-01T00:26:35;10.00;99.90
21271;DHT22;10795;50.796;3.860;2023-04-01T00:29:00;9.90;99.90
21271;DHT22;10795;50.796;3.860;2023-04-01T00:31:26;10.00;99.90
21271;DHT22;10795;50.796;3.860;2023-04-01T00:33:52;10.00;99.90
21271;DHT22;10795;50.796;3.860;2023-04-01T00:36:19;10.10;99.90
21271;DHT22;10795;50.796;3.860;2023-04-01T00:38:45;10.00;99.90
21271;DHT22;10795;50.796;3.860;2023-04-01T00:41:11;10.00;99.90
21271;DHT22;10795;50.796;3.860;2023-04-01T00:43:39;10.00;99.90
21271;DHT22;10795;50.796;3.860;2023-04-01T00:46:05;9.90;99.90
21271;DHT22;10795;50.796;3.860;2023-04-01T00:48:33;10.00;99.90
21271;DHT22;10795;50.796;3.860;2023-04-01T00:51:01;10.00;99.90
21271;DHT22;10795;50.796;3.860;2023-04-01T00:53:28;9.90;99.90
21271;DHT22;10795;50.796;3.860;2023-04-01T00:56:00;9.90;99.90
21271;DHT22;10795;50.796;3.860;2023-04-01T00:58:27;9.90;99.90
21271;DHT22;10795;50.796;3.860;2023-04-01T01:00:54;10.00;99.90
21271;DHT22;10795;50.796;3.860;2023-04-01T01:03:20;10.00;99.90
21271;DHT22;10795;50.796;3.860;2023-04-01T01:05:59;10.10;99.90
21271;DHT22;10795;50.796;3.860;2023-04-01T01:08:45;10.00;99.90
21271;DHT22;10795;50.796;3.860;2023-04-01T01:11:12;9.90;99.90
21271;DHT22;10795;50.796;3.860;2023-04-01T01:16:20;9.90;99.90
21271;DHT22;10795;50.796;3.860;2023-04-01T01:28:51;9.70;99.90
21271;DHT22;10795;50.796;3.860;2023-04-01T01:31:44;9.80;99.90
21271;DHT22;10795;50.796;3.860;2023-04-01T01:36:41;9.80;99.90
21271;DHT22;10795;50.796;3.860;2023-04-01T01:39:09;9.80;99.90
21271;DHT22;10795;50.796;3.860;2023-04-01T01:41:35;9.90;99.90
21271;DHT22;10795;50.796;3.860;2023-04-01T01:44:03;9.90;99.90
21271;DHT22;10795;50.796;3.860;2023-04-01T01:46:30;9.80;99.90
21271;DHT22;10795;50.796;3.860;2023-04-01T01:48:56;9.80;99.90
21271;DHT22;10795;50.796;3.860;2023-04-01T01:51:22;9.70;99.90
21271;DHT22;10795;50.796;3.860;2023-04-01T01:53:48;9.70;99.90
21271;DHT22;10795;50.796;3.860;2023-04-01T01:56:16;9.80;99.90
21271;DHT22;10795;50.796;3.860;2023-04-01T01:58:51;9.80;99.90
21271;DHT22;10795;50.796;3.860;2023-04-01T02:01:24;9.80;99.90
21271;DHT22;10795;50.796;3.860;2023-04-01T02:03:52;9.70;99.90
21271;DHT22;10795;50.796;3.860;2023-04-01T02:06:20;9.80;99.90
21271;DHT22;10795;50.796;3.860;2023-04-01T02:08:57;9.80;99.90
21271;DHT22;10795;50.796;3.860;2023-04-01T02:11:46;9.70;99.90
21271;DHT22;10795;50.796;3.860;2023-04-01T02:14:11;9.50;99.90
21271;DHT22;10795;50.796;3.860;2023-04-01T02:19:08;9.60;99.90
21271;DHT22;10795;50.796;3.860;2023-04-01T02:21:35;9.60;99.90
21271;DHT22;10795;50.796;3.860;2023-04-01T02:24:03;9.70;99.90
21271;DHT22;10795;50.796;3.860;2023-04-01T02:26:30;9.80;99.90
21271;DHT22;10795;50.796;3.860;2023-04-01T02:28:56;9.70;99.90
21271;DHT22;10795;50.796;3.860;2023-04-01T02:31:26;9.70;99.90
21271;DHT22;10795;50.796;3.860;2023-04-01T02:33:52;9.60;99.90
21271;DHT22;10795;50.796;3.860;2023-04-01T02:36:18;9.60;99.90
21271;DHT22;10795;50.796;3.860;2023-04-01T02:38:45;9.70;99.90
21271;DHT22;10795;50.796;3.860;2023-04-01T02:41:12;9.70;99.90
21271;DHT22;10795;50.796;3.860;2023-04-01T02:43:37;9.60;99.90
21271;DHT22;10795;50.796;3.860;2023-04-01T02:46:03;9.70;99.90
21271;DHT22;10795;50.796;3.860;2023-04-01T02:48:29;9.60;99.90
21271;DHT22;10795;50.796;3.860;2023-04-01T02:50:55;9.70;99.90
21271;DHT22;10795;50.796;3.860;2023-04-01T02:53:21;9.70;99.90
21271;DHT22;10795;50.796;3.860;2023-04-01T02:55:47;9.60;99.90
21271;DHT22;10795;50.796;3.860;2023-04-01T02:58:16;9.60;99.90
21271;DHT22;10795;50.796;3.860;2023-04-01T03:00:42;9.60;99.90
21271;DHT22;10795;50.796;3.860;2023-04-01T03:03:08;9.60;99.90
21271;DHT22;10795;50.796;3.860;2023-04-01T03:05:34;9.70;99.90
21271;DHT22;10795;50.796;3.860;2023-04-01T03:08:00;9.80;99.90
21271;DHT22;10795;50.796;3.860;2023-04-01T03:10:25;9.70;99.90
21271;DHT22;10795;50.796;3.860;2023-04-01T03:12:51;9.60;99.90
21271;DHT22;10795;50.796;3.860;2023-04-01T03:15:16;9.70;99.90
21271;DHT22;10795;50.796;3.860;2023-04-01T03:17:42;9.70;99.90
21271;DHT22;10795;50.796;3.860;2023-04-01T03:20:09;9.70;99.90
21271;DHT22;10795;50.796;3.860;2023-04-01T03:22:36;9.70;99.90
21271;DHT22;10795;50.796;3.860;2023-04-01T03:25:03;9.80;99.90
21271;DHT22;10795;50.796;3.860;2023-04-01T03:27:31;9.80;99.90
21271;DHT22;10795;50.796;3.860;2023-04-01T03:29:57;9.80;99.90
21271;DHT22;10795;50.796;3.860;2023-04-01T03:32:23;9.60;99.90
21271;DHT22;10795;50.796;3.860;2023-04-01T03:34:49;9.50;99.90
21271;DHT22;10795;50.796;3.860;2023-04-01T03:37:17;9.50;99.90
21271;DHT22;10795;50.796;3.860;2023-04-01T03:39:43;9.50;99.90
21271;DHT22;10795;50.796;3.860;2023-04-01T03:42:09;9.50;99.90
21271;DHT22;10795;50.796;3.860;2023-04-01T03:44:34;9.50;99.90
21271;DHT22;10795;50.796;3.860;2023-04-01T03:47:00;9.50;99.90
21271;DHT22;10795;50.796;3.860;2023-04-01T03:49:27;9.50;99.90
21271;DHT22;10795;50.796;3.860;2023-04-01T03:51:53;9.70;99.90
21271;DHT22;10795;50.796;3.860;2023-04-01T03:54:19;9.60;99.90
21271;DHT22;10795;50.796;3.860;2023-04-01T03:56:45;9.70;99.90
21271;DHT22;10795;50.796;3.860;2023-04-01T03:59:11;9.50;99.90
21271;DHT22;10795;50.796;3.860;2023-04-01T04:01:37;9.50;99.90
21271;DHT22;10795;50.796;3.860;2023-04-01T04:04:03;9.40;99.90
21271;DHT22;10795;50.796;3.860;2023-04-01T04:06:28;9.40;99.90
21271;DHT22;10795;50.796;3.860;2023-04-01T04:08:54;9.40;99.90
21271;DHT22;10795;50.796;3.860;2023-04-01T04:11:20;9.50;99.90
21271;DHT22;10795;50.796;3.860;2023-04-01T04:13:47;9.40;99.90
21271;DHT22;10795;50.796;3.860;2023-04-01T04:16:16;9.40;99.90
21271;DHT22;10795;50.796;3.860;2023-04-01T04:18:45;9.30;99.90
21271;DHT22;10795;50.796;3.860;2023-04-01T04:21:12;9.30;99.90
21271;DHT22;10795;50.796;3.860;2023-04-01T04:23:39;9.30;99.90
21271;DHT22;10795;50.796;3.860;2023-04-01T04:26:08;9.30;99.90
21271;DHT22;10795;50.796;3.860;2023-04-01T04:28:35;9.40;99.90
21271;DHT22;10795;50.796;3.860;2023-04-01T04:31:01;9.30;99.90
21271;DHT22;10795;50.796;3.860;2023-04-01T04:33:27;9.30;99.90
21271;DHT22;10795;50.796;3.860;2023-04-01T04:35:57;9.40;99.90
21271;DHT22;10795;50.796;3.860;2023-04-01T04:38:23;9.40;99.90
21271;DHT22;10795;50.796;3.860;2023-04-01T04:40:48;9.40;99.90
21271;DHT22;10795;50.796;3.860;2023-04-01T04:43:15;9.50;99.90
21271;DHT22;10795;50.796;3.860;2023-04-01T04:45:41;9.50;99.90
21271;DHT22;10795;50.796;3.860;2023-04-01T04:48:08;9.40;99.90
21271;DHT22;10795;50.796;3.860;2023-04-01T04:50:35;9.40;99.90
21271;DHT22;10795;50.796;3.860;2023-04-01T04:53:01;9.50;99.90
21271;DHT22;10795;50.796;3.860;2023-04-01T04:55:27;9.50;99.90
21271;DHT22;10795;50.796;3.860;2023-04-01T04:58:12;9.50;99.90
21271;DHT22;10795;50.796;3.860;2023-04-01T05:00:41;9.30;99.90
21271;DHT22;10795;50.796;3.860;2023-04-01T05:03:11;9.30;99.90
21271;DHT22;10795;50.796;3.860;2023-04-01T05:05:37;9.30;99.90
21271;DHT22;10795;50.796;3.860;2023-04-01T05:08:03;9.40;99.90
21271;DHT22;10795;50.796;3.860;2023-04-01T05:10:29;9.30;99.90
21271;DHT22;10795;50.796;3.860;2023-04-01T05:12:55;9.30;99.90
21271;DHT22;10795;50.796;3.860;2023-04-01T05:15:22;9.20;99.90
21271;DHT22;10795;50.796;3.860;2023-04-01T05:17:48;9.30;99.90
21271;DHT22;10795;50.796;3.860;2023-04-01T05:20:14;9.30;99.90
21271;DHT22;10795;50.796;3.860;2023-04-01T05:22:40;9.40;99.90
21271;DHT22;10795;50.796;3.860;2023-04-01T05:25:06;9.30;99.90
21271;DHT22;10795;50.796;3.860;2023-04-01T05:27:32;9.20;99.90
21271;DHT22;10795;50.796;3.860;2023-04-01T05:29:57;9.20;99.90
21271;DHT22;10795;50.796;3.860;2023-04-01T05:32:46;9.20;99.90
21271;DHT22;10795;50.796;3.860;2023-04-01T05:35:12;9.30;99.90
21271;DHT22;10795;50.796;3.860;2023-04-01T05:37:38;9.30;99.90
21271;DHT22;10795;50.796;3.860;2023-04-01T05:40:04;9.30;99.90
21271;DHT22;10795;50.796;3.860;2023-04-01T05:42:30;9.30;99.90
21271;DHT22;10795;50.796;3.860;2023-04-01T05:44:55;9.20;99.90
21271;DHT22;10795;50.796;3.860;2023-04-01T05:47:50;9.30;99.90
21271;DHT22;10795;50.796;3.860;2023-04-01T05:50:17;9.20;99.90
21271;DHT22;10795;50.796;3.860;2023-04-01T05:52:43;9.30;99.90
21271;DHT22;10795;50.796;3.860;2023-04-01T05:55:10;9.40;99.90
21271;DHT22;10795;50.796;3.860;2023-04-01T05:57:36;9.30;99.90
21271;DHT22;10795;50.796;3.860;2023-04-01T06:00:03;9.30;99.90
21271;DHT22;10795;50.796;3.860;2023-04-01T06:02:38;9.30;99.90
21271;DHT22;10795;50.796;3.860;2023-04-01T06:07:37;9.20;99.90
21271;DHT22;10795;50.796;3.860;2023-04-01T06:10:05;9.20;99.90
21271;DHT22;10795;50.796;3.860;2023-04-01T06:13:09;9.30;99.90
21271;DHT22;10795;50.796;3.860;2023-04-01T06:23:24;9.40;99.90
21271;DHT22;10795;50.796;3.860;2023-04-01T06:31:24;9.10;99.90
21271;DHT22;10795;50.796;3.860;2023-04-01T06:34:05;9.30;99.90
21271;DHT22;10795;50.796;3.860;2023-04-01T06:50:30;9.30;99.90
21271;DHT22;10795;50.796;3.860;2023-04-01T06:53:21;9.40;99.90
21271;DHT22;10795;50.796;3.860;2023-04-01T06:56:14;9.40;99.90
21271;DHT22;10795;50.796;3.860;2023-04-01T06:58:48;9.20;99.90
21271;DHT22;10795;50.796;3.860;2023-04-01T07:01:38;9.20;99.90
21271;DHT22;10795;50.796;3.860;2023-04-01T07:04:04;9.30;99.90
21271;DHT22;10795;50.796;3.860;2023-04-01T07:09:16;9.50;99.90
21271;DHT22;10795;50.796;3.860;2023-04-01T07:12:04;9.40;99.90
21271;DHT22;10795;50.796;3.860;2023-04-01T07:15:06;9.50;99.90
21271;DHT22;10795;50.796;3.860;2023-04-01T07:17:38;9.30;99.90
21271;DHT22;10795;50.796;3.860;2023-04-01T07:20:12;9.40;99.90
21271;DHT22;10795;50.796;3.860;2023-04-01T07:22:40;9.40;99.90
21271;DHT22;10795;50.796;3.860;2023-04-01T07:25:35;9.40;99.90
21271;DHT22;10795;50.796;3.860;2023-04-01T07:28:21;9.50;99.90
21271;DHT22;10795;50.796;3.860;2023-04-01T07:36:33;9.60;99.90
21271;DHT22;10795;50.796;3.860;2023-04-01T07:38:59;9.40;99.90
21271;DHT22;10795;50.796;3.860;2023-04-01T07:52:31;9.50;99.90
21271;DHT22;10795;50.796;3.860;2023-04-01T07:55:16;9.50;99.90
21271;DHT22;10795;50.796;3.860;2023-04-01T08:00:24;9.50;99.90
21271;DHT22;10795;50.796;3.860;2023-04-01T08:03:14;9.50;99.90
21271;DHT22;10795;50.796;3.860;2023-04-01T08:05:56;9.50;99.90
21271;DHT22;10795;50.796;3.860;2023-04-01T08:08:43;9.50;99.90
21271;DHT22;10795;50.796;3.860;2023-04-01T08:17:16;9.80;99.90
21271;DHT22;10795;50.796;3.860;2023-04-01T08:22:29;9.90;99.90
21271;DHT22;10795;50.796;3.860;2023-04-01T08:25:01;9.80;99.90
21271;DHT22;10795;50.796;3.860;2023-04-01T08:32:28;9.70;99.90
21271;DHT22;10795;50.796;3.860;2023-04-01T08:37:39;9.70;99.90
21271;DHT22;10795;50.796;3.860;2023-04-01T08:40:15;9.80;99.90
21271;DHT22;10795;50.796;3.860;2023-04-01T08:53:41;9.70;99.90
21271;DHT22;10795;50.796;3.860;2023-04-01T08:56:17;9.70;99.90
21271;DHT22;10795;50.796;3.860;2023-04-01T08:58:57;9.70;99.90
21271;DHT22;10795;50.796;3.860;2023-04-01T09:09:21;9.90;99.90
21271;DHT22;10795;50.796;3.860;2023-04-01T09:12:07;9.90;99.90
21271;DHT22;10795;50.796;3.860;2023-04-01T09:22:46;10.10;99.90
21271;DHT22;10795;50.796;3.860;2023-04-01T09:35:47;10.40;99.90
21271;DHT22;10795;50.796;3.860;2023-04-01T09:40:58;10.30;99.90
21271;DHT22;10795;50.796;3.860;2023-04-01T09:52:01;10.70;99.90
21271;DHT22;10795;50.796;3.860;2023-04-01T10:03:06;10.10;99.90
21271;DHT22;10795;50.796;3.860;2023-04-01T10:11:22;10.10;99.90
21271;DHT22;10795;50.796;3.860;2023-04-01T10:37:54;10.40;99.90
21271;DHT22;10795;50.796;3.860;2023-04-01T10:40:24;10.50;99.90
21271;DHT22;10795;50.796;3.860;2023-04-01T10:43:32;10.60;99.90
21271;DHT22;10795;50.796;3.860;2023-04-01T11:03:04;11.00;99.90
21271;DHT22;10795;50.796;3.860;2023-04-01T11:18:56;10.60;99.90
21271;DHT22;10795;50.796;3.860;2023-04-01T11:35:54;11.00;99.90
21271;DHT22;10795;50.796;3.860;2023-04-01T11:43:31;10.90;99.90
21271;DHT22;10795;50.796;3.860;2023-04-01T11:49:49;10.70;99.90
21271;DHT22;10795;50.796;3.860;2023-04-01T11:52:25;10.90;99.90
21271;DHT22;10795;50.796;3.860;2023-04-01T11:55:18;10.90;99.90
21271;DHT22;10795;50.796;3.860;2023-04-01T12:08:06;10.60;99.90
21271;DHT22;10795;50.796;3.860;2023-04-01T12:13:23;10.60;99.90
21271;DHT22;10795;50.796;3.860;2023-04-01T12:18:42;10.90;99.90
21271;DHT22;10795;50.796;3.860;2023-04-01T12:21:17;10.60;99.90
21271;DHT22;10795;50.796;3.860;2023-04-01T12:26:17;10.80;99.90
21271;DHT22;10795;50.796;3.860;2023-04-01T12:39:31;10.40;99.90
21271;DHT22;10795;50.796;3.860;2023-04-01T12:59:25;10.30;99.90
21271;DHT22;10795;50.796;3.860;2023-04-01T13:04:37;10.00;99.90
21271;DHT22;10795;50.796;3.860;2023-04-01T13:09:43;10.10;99.90
21271;DHT22;10795;50.796;3.860;2023-04-01T13:29:52;10.60;99.90
21271;DHT22;10795;50.796;3.860;2023-04-01T13:42:14;10.90;99.90
21271;DHT22;10795;50.796;3.860;2023-04-01T13:45:30;10.90;99.90
21271;DHT22;10795;50.796;3.860;2023-04-01T14:06:26;10.00;99.90
21271;DHT22;10795;50.796;3.860;2023-04-01T14:16:40;10.30;99.90
21271;DHT22;10795;50.796;3.860;2023-04-01T14:19:19;10.10;99.90
21271;DHT22;10795;50.796;3.860;2023-04-01T14:21:53;10.20;99.90
21271;DHT22;10795;50.796;3.860;2023-04-01T14:24:32;10.50;99.90
21271;DHT22;10795;50.796;3.860;2023-04-01T14:29:36;10.20;99.90
21271;DHT22;10795;50.796;3.860;2023-04-01T14:45:19;10.20;99.90
21271;DHT22;10795;50.796;3.860;2023-04-01T14:47:43;10.20;99.90
21271;DHT22;10795;50.796;3.860;2023-04-01T14:50:12;10.30;99.90
21271;DHT22;10795;50.796;3.860;2023-04-01T14:52:39;10.50;99.90
21271;DHT22;10795;50.796;3.860;2023-04-01T14:57:43;10.70;99.90
21271;DHT22;10795;50.796;3.860;2023-04-01T15:00:22;10.50;99.90
21271;DHT22;10795;50.796;3.860;2023-04-01T15:02:57;10.60;99.90
21271;DHT22;10795;50.796;3.860;2023-04-01T15:18:53;10.80;99.90
21271;DHT22;10795;50.796;3.860;2023-04-01T15:29:25;9.70;99.90
21271;DHT22;10795;50.796;3.860;2023-04-01T15:34:27;9.50;99.90
21271;DHT22;10795;50.796;3.860;2023-04-01T15:36:58;9.40;99.90
21271;DHT22;10795;50.796;3.860;2023-04-01T15:49:43;9.70;99.90
21271;DHT22;10795;50.796;3.860;2023-04-01T15:52:17;10.00;99.90
21271;DHT22;10795;50.796;3.860;2023-04-01T15:59:51;9.50;99.90
21271;DHT22;10795;50.796;3.860;2023-04-01T16:07:21;9.50;99.90
21271;DHT22;10795;50.796;3.860;2023-04-01T16:14:52;9.20;99.90
21271;DHT22;10795;50.796;3.860;2023-04-01T16:19:53;9.20;99.90
21271;DHT22;10795;50.796;3.860;2023-04-01T16:22:26;9.30;99.90
21271;DHT22;10795;50.796;3.860;2023-04-01T16:25:17;9.30;99.90
21271;DHT22;10795;50.796;3.860;2023-04-01T16:27:50;9.20;99.90
21271;DHT22;10795;50.796;3.860;2023-04-01T16:30:37;9.20;99.90
21271;DHT22;10795;50.796;3.860;2023-04-01T16:33:11;9.20;99.90
21271;DHT22;10795;50.796;3.860;2023-04-01T16:35:43;9.30;99.90
21271;DHT22;10795;50.796;3.860;2023-04-01T16:48:45;9.20;99.90
21271;DHT22;10795;50.796;3.860;2023-04-01T16:51:15;9.20;99.90
21271;DHT22;10795;50.796;3.860;2023-04-01T16:56:10;9.50;99.90
21271;DHT22;10795;50.796;3.860;2023-04-01T16:58:39;9.50;99.90
21271;DHT22;10795;50.796;3.860;2023-04-01T17:01:07;9.50;99.90
21271;DHT22;10795;50.796;3.860;2023-04-01T17:14:10;9.50;99.90
21271;DHT22;10795;50.796;3.860;2023-04-01T17:32:39;9.30;99.90
21271;DHT22;10795;50.796;3.860;2023-04-01T17:43:20;9.40;99.90
21271;DHT22;10795;50.796;3.860;2023-04-01T17:45:54;9.50;99.90
21271;DHT22;10795;50.796;3.860;2023-04-01T17:48:29;9.30;99.90
21271;DHT22;10795;50.796;3.860;2023-04-01T17:56:12;9.60;99.90
21271;DHT22;10795;50.796;3.860;2023-04-01T18:01:25;9.30;99.90
21271;DHT22;10795;50.796;3.860;2023-04-01T18:06:42;9.50;99.90
21271;DHT22;10795;50.796;3.860;2023-04-01T18:11:44;9.60;99.90
21271;DHT22;10795;50.796;3.860;2023-04-01T18:27:40;10.10;99.90
21271;DHT22;10795;50.796;3.860;2023-04-01T18:32:36;10.20;99.90
21271;DHT22;10795;50.796;3.860;2023-04-01T18:35:22;10.10;99.90
21271;DHT22;10795;50.796;3.860;2023-04-01T18:43:21;9.90;99.90
21271;DHT22;10795;50.796;3.860;2023-04-01T18:45:54;10.00;99.90
21271;DHT22;10795;50.796;3.860;2023-04-01T18:51:13;9.60;99.90
21271;DHT22;10795;50.796;3.860;2023-04-01T18:54:00;9.50;99.90
21271;DHT22;10795;50.796;3.860;2023-04-01T18:56:34;9.60;99.90
21271;DHT22;10795;50.796;3.860;2023-04-01T18:59:11;9.80;99.90
21271;DHT22;10795;50.796;3.860;2023-04-01T19:01:39;9.70;99.90
21271;DHT22;10795;50.796;3.860;2023-04-01T19:06:45;9.60;99.90
21271;DHT22;10795;50.796;3.860;2023-04-01T19:09:17;9.70;99.90
21271;DHT22;10795;50.796;3.860;2023-04-01T19:11:46;9.70;99.90
21271;DHT22;10795;50.796;3.860;2023-04-01T19:14:21;10.00;99.90
21271;DHT22;10795;50.796;3.860;2023-04-01T19:27:32;9.70;99.90
21271;DHT22;10795;50.796;3.860;2023-04-01T19:35:42;9.90;99.90
21271;DHT22;10795;50.796;3.860;2023-04-01T19:38:28;9.60;99.90
21271;DHT22;10795;50.796;3.860;2023-04-01T19:41:01;9.50;99.90
21271;DHT22;10795;50.796;3.860;2023-04-01T19:46:04;9.60;99.90
21271;DHT22;10795;50.796;3.860;2023-04-01T19:53:31;9.90;99.90
21271;DHT22;10795;50.796;3.860;2023-04-01T19:56:15;9.40;99.90
21271;DHT22;10795;50.796;3.860;2023-04-01T20:01:08;9.10;99.90
21271;DHT22;10795;50.796;3.860;2023-04-01T20:06:15;9.30;99.90
21271;DHT22;10795;50.796;3.860;2023-04-01T20:11:34;9.70;99.90
21271;DHT22;10795;50.796;3.860;2023-04-01T20:14:13;9.70;99.90
21271;DHT22;10795;50.796;3.860;2023-04-01T20:19:09;9.50;99.90
21271;DHT22;10795;50.796;3.860;2023-04-01T20:21:45;9.40;99.90
21271;DHT22;10795;50.796;3.860;2023-04-01T20:24:20;9.20;99.90
21271;DHT22;10795;50.796;3.860;2023-04-01T20:26:51;9.10;99.90
21271;DHT22;10795;50.796;3.860;2023-04-01T20:52:45;9.10;99.90
21271;DHT22;10795;50.796;3.860;2023-04-01T20:58:09;9.50;99.90
21271;DHT22;10795;50.796;3.860;2023-04-01T21:03:12;9.50;99.90
21271;DHT22;10795;50.796;3.860;2023-04-01T21:08:26;9.50;99.90
21271;DHT22;10795;50.796;3.860;2023-04-01T21:13:45;9.80;99.90
21271;DHT22;10795;50.796;3.860;2023-04-01T21:18:47;9.50;99.90
21271;DHT22;10795;50.796;3.860;2023-04-01T21:23:58;9.70;99.90
21271;DHT22;10795;50.796;3.860;2023-04-01T21:32:36;9.60;99.90
21271;DHT22;10795;50.796;3.860;2023-04-01T21:39:48;9.50;99.90
21271;DHT22;10795;50.796;3.860;2023-04-01T21:42:38;9.80;99.90
21271;DHT22;10795;50.796;3.860;2023-04-01T21:50:24;9.60;99.90
21271;DHT22;10795;50.796;3.860;2023-04-01T22:13:39;9.50;99.90
21271;DHT22;10795;50.796;3.860;2023-04-01T22:16:20;9.50;99.90
21271;DHT22;10795;50.796;3.860;2023-04-01T22:19:02;9.50;99.90
21271;DHT22;10795;50.796;3.860;2023-04-01T22:26:49;9.40;99.90
21271;DHT22;10795;50.796;3.860;2023-04-01T22:29:20;9.40;99.90
21271;DHT22;10795;50.796;3.860;2023-04-01T22:35:12;9.40;99.90
21271;DHT22;10795;50.796;3.860;2023-04-01T22:50:02;9.60;99.90
21271;DHT22;10795;50.796;3.860;2023-04-01T22:52:39;9.50;99.90
21271;DHT22;10795;50.796;3.860;2023-04-01T22:55:40;9.60;99.90
21271;DHT22;10795;50.796;3.860;2023-04-01T23:00:30;9.40;99.90
21271;DHT22;10795;50.796;3.860;2023-04-01T23:06:00;9.40;99.90
21271;DHT22;10795;50.796;3.860;2023-04-01T23:10:58;9.60;99.90
21271;DHT22;10795;50.796;3.860;2023-04-01T23:13:27;9.50;99.90
21271;DHT22;10795;50.796;3.860;2023-04-01T23:15:53;9.60;99.90
21271;DHT22;10795;50.796;3.860;2023-04-01T23:31:29;9.60;99.90
21271;DHT22;10795;50.796;3.860;2023-04-01T23:33:56;9.50;99.90
21271;DHT22;10795;50.796;3.860;2023-04-01T23:36:22;9.60;99.90
21271;DHT22;10795;50.796;3.860;2023-04-01T23:38:48;9.60;99.90
21271;DHT22;10795;50.796;3.860;2023-04-01T23:41:25;9.60;99.90
21271;DHT22;10795;50.796;3.860;2023-04-01T23:43:58;9.60;99.90
21271;DHT22;10795;50.796;3.860;2023-04-01T23:46:25;9.40;99.90
21271;DHT22;10795;50.796;3.860;2023-04-01T23:48:51;9.40;99.90
21271;DHT22;10795;50.796;3.860;2023-04-01T23:51:27;9.50;99.90
21271;DHT22;10795;50.796;3.860;2023-04-01T23:54:38;9.40;99.90
21271;DHT22;10795;50.796;3.860;2023-04-01T23:56:43;9.30;99.90
21271;DHT22;10795;50.796;3.860;2023-04-01T23:59:14;9.20;99.90
